createdAt,value
2019-04-28T00:01:06.472Z,57.25
2019-04-28T00:02:13.303Z,57.22
2019-04-28T00:03:18.292Z,57.19
2019-04-28T00:04:23.711Z,57.15
2019-04-28T00:05:28.609Z,57.16
2019-04-28T00:06:34.154Z,57.25
2019-04-28T00:07:41.092Z,57.31
2019-04-28T00:08:46.157Z,57.30
2019-04-28T00:09:51.482Z,57.30
2019-04-28T00:10:57.076Z,57.36
2019-04-28T00:12:02.467Z,57.40
2019-04-28T00:13:07.714Z,57.47
2019-04-28T00:14:17.151Z,57.47
2019-04-28T00:15:22.284Z,57.41
2019-04-28T00:16:27.443Z,57.41
2019-04-28T00:17:32.985Z,57.44
2019-04-28T00:18:38.494Z,57.54
2019-04-28T00:19:43.628Z,57.48
2019-04-28T00:21:16.637Z,57.41
2019-04-28T00:22:43.279Z,57.41
2019-04-28T00:24:16.317Z,57.41
2019-04-28T00:25:24.750Z,57.48
2019-04-28T00:26:43.013Z,57.57
2019-04-28T00:27:48.103Z,57.63
2019-04-28T00:28:53.515Z,57.60
2019-04-28T00:29:58.797Z,57.54
2019-04-28T00:31:04.201Z,57.54
2019-04-28T00:32:13.260Z,57.61
2019-04-28T00:33:18.523Z,57.69
2019-04-28T00:34:23.829Z,57.73
2019-04-28T00:35:28.886Z,57.75
2019-04-28T00:36:34.146Z,57.80
2019-04-28T00:37:41.788Z,57.83
2019-04-28T00:38:46.769Z,57.86
2019-04-28T00:39:52.255Z,57.89
2019-04-28T00:40:57.710Z,57.92
2019-04-28T00:42:03.322Z,57.94
2019-04-28T00:43:10.380Z,57.95
2019-04-28T00:44:16.323Z,57.94
2019-04-28T00:45:21.580Z,57.90
2019-04-28T00:46:31.285Z,57.91
2019-04-28T00:47:36.558Z,57.93
2019-04-28T00:48:41.616Z,57.97
2019-04-28T00:49:46.733Z,58.04
2019-04-28T00:50:51.973Z,58.13
2019-04-28T00:51:57.722Z,58.11
2019-04-28T00:53:02.824Z,58.08
2019-04-28T00:54:07.890Z,58.07
2019-04-28T00:55:13.188Z,58.07
2019-04-28T00:56:18.198Z,58.13
2019-04-28T00:57:23.814Z,58.27
2019-04-28T00:58:28.982Z,58.32
2019-04-28T00:59:34.041Z,58.39
2019-04-28T01:00:41.467Z,58.39
2019-04-28T01:01:56.045Z,58.39
2019-04-28T01:03:02.162Z,58.33
2019-04-28T01:04:07.560Z,58.37
2019-04-28T01:05:12.808Z,58.41
2019-04-28T01:06:17.945Z,58.42
2019-04-28T01:07:23.064Z,58.47
2019-04-28T01:08:28.403Z,58.55
2019-04-28T01:09:33.565Z,58.60
2019-04-28T01:10:38.691Z,58.71
2019-04-28T01:11:43.776Z,58.82
2019-04-28T01:12:50.869Z,58.91
2019-04-28T01:13:55.639Z,58.95
2019-04-28T01:15:04.539Z,58.97
2019-04-28T01:16:13.960Z,59.06
2019-04-28T01:17:50.252Z,59.11
2019-04-28T01:19:00.157Z,59.12
2019-04-28T01:20:06.948Z,59.16
2019-04-28T01:21:12.057Z,59.20
2019-04-28T01:22:20.147Z,59.23
2019-04-28T01:23:25.176Z,59.28
2019-04-28T01:24:30.268Z,59.29
2019-04-28T01:25:35.553Z,59.30
2019-04-28T01:26:41.653Z,59.33
2019-04-28T01:27:50.785Z,59.37
2019-04-28T01:28:55.856Z,59.39
2019-04-28T01:30:07.997Z,59.43
2019-04-28T01:31:34.797Z,59.42
2019-04-28T01:32:45.652Z,59.42
2019-04-28T01:34:10.313Z,59.43
2019-04-28T01:35:15.618Z,59.45
2019-04-28T01:36:20.744Z,59.49
2019-04-28T01:37:26.110Z,59.52
2019-04-28T01:38:31.299Z,59.60
2019-04-28T01:39:36.393Z,59.66
2019-04-28T01:40:41.598Z,59.68
2019-04-28T01:41:46.571Z,59.72
2019-04-28T01:42:51.573Z,59.77
2019-04-28T01:43:56.729Z,59.84
2019-04-28T01:45:02.015Z,59.90
2019-04-28T01:46:07.055Z,59.94
2019-04-28T01:47:12.246Z,59.88
2019-04-28T01:48:17.521Z,59.88
2019-04-28T01:49:23.122Z,59.90
2019-04-28T01:50:29.950Z,59.88
2019-04-28T01:51:36.221Z,59.87
2019-04-28T01:52:41.327Z,59.84
2019-04-28T01:53:46.745Z,59.82
2019-04-28T01:54:51.801Z,59.83
2019-04-28T01:55:57.142Z,59.86
2019-04-28T01:57:02.327Z,59.90
2019-04-28T01:58:07.332Z,59.91
2019-04-28T01:59:12.377Z,59.84
2019-04-28T02:00:25.156Z,59.87
2019-04-28T02:01:25.874Z,59.92
2019-04-28T02:02:30.999Z,59.89
2019-04-28T02:03:36.045Z,59.82
2019-04-28T02:04:41.133Z,59.75
2019-04-28T02:05:46.383Z,59.76
2019-04-28T02:06:52.929Z,59.84
2019-04-28T02:07:58.087Z,59.96
2019-04-28T02:09:03.125Z,60.07
2019-04-28T02:10:10.156Z,60.14
2019-04-28T02:11:15.050Z,60.15
2019-04-28T02:12:20.425Z,60.18
2019-04-28T02:13:25.551Z,60.23
2019-04-28T02:14:30.951Z,60.22
2019-04-28T02:15:36.509Z,60.24
2019-04-28T02:16:41.562Z,60.18
2019-04-28T02:17:46.665Z,60.12
2019-04-28T02:18:51.922Z,60.13
2019-04-28T02:19:57.130Z,60.15
2019-04-28T02:21:27.390Z,60.16
2019-04-28T02:22:37.309Z,60.20
2019-04-28T02:23:42.358Z,60.24
2019-04-28T02:24:47.326Z,60.24
2019-04-28T02:25:52.336Z,60.20
2019-04-28T02:26:57.631Z,60.24
2019-04-28T02:28:02.750Z,60.30
2019-04-28T02:29:07.990Z,60.33
2019-04-28T02:30:13.267Z,60.42
2019-04-28T02:31:21.516Z,60.45
2019-04-28T02:32:25.236Z,60.44
2019-04-28T02:33:31.269Z,60.48
2019-04-28T02:34:36.537Z,60.53
2019-04-28T02:35:42.250Z,60.61
2019-04-28T02:36:47.450Z,60.67
2019-04-28T02:37:52.780Z,60.71
2019-04-28T02:38:57.793Z,60.77
2019-04-28T02:40:03.490Z,60.79
2019-04-28T02:41:11.078Z,60.79
2019-04-28T02:42:15.653Z,60.78
2019-04-28T02:43:21.109Z,60.74
2019-04-28T02:44:30.691Z,60.74
2019-04-28T02:45:36.221Z,60.71
2019-04-28T02:46:42.205Z,60.69
2019-04-28T02:47:47.561Z,60.72
2019-04-28T02:48:54.014Z,60.73
2019-04-28T02:50:04.568Z,60.67
2019-04-28T02:51:17.101Z,60.63
2019-04-28T02:52:41.472Z,60.63
2019-04-28T02:53:51.143Z,60.63
2019-04-28T02:54:55.650Z,60.68
2019-04-28T02:56:01.106Z,60.70
2019-04-28T02:57:06.245Z,60.76
2019-04-28T02:58:13.363Z,60.77
2019-04-28T02:59:20.891Z,60.79
2019-04-28T03:00:25.320Z,60.85
2019-04-28T03:01:30.952Z,60.84
2019-04-28T03:02:36.411Z,60.85
2019-04-28T03:03:41.491Z,60.78
2019-04-28T03:04:47.078Z,60.78
2019-04-28T03:05:52.167Z,60.82
2019-04-28T03:06:57.609Z,60.78
2019-04-28T03:08:03.017Z,60.83
2019-04-28T03:09:10.589Z,60.78
2019-04-28T03:10:15.179Z,60.83
2019-04-28T03:11:20.585Z,60.85
2019-04-28T03:12:26.253Z,60.85
2019-04-28T03:13:31.501Z,60.86
2019-04-28T03:14:36.522Z,60.86
2019-04-28T03:15:42.072Z,60.84
2019-04-28T03:16:47.341Z,60.86
2019-04-28T03:17:53.202Z,60.85
2019-04-28T03:19:01.123Z,60.87
2019-04-28T03:20:05.921Z,60.90
2019-04-28T03:21:11.530Z,60.89
2019-04-28T03:22:16.975Z,60.88
2019-04-28T03:23:22.096Z,60.87
2019-04-28T03:24:27.360Z,60.92
2019-04-28T03:26:11.165Z,60.92
2019-04-28T03:27:26.164Z,60.92
2019-04-28T03:28:51.402Z,60.87
2019-04-28T03:30:00.905Z,60.90
2019-04-28T03:32:07.279Z,60.86
2019-04-28T03:32:52.511Z,60.84
2019-04-28T03:33:53.767Z,61.02
2019-04-28T03:34:55.043Z,61.15
2019-04-28T03:36:07.892Z,61.20
2019-04-28T03:37:11.289Z,61.24
2019-04-28T03:38:16.639Z,61.26
2019-04-28T03:39:21.832Z,61.30
2019-04-28T03:40:26.988Z,61.27
2019-04-28T03:41:32.145Z,61.27
2019-04-28T03:42:37.234Z,61.29
2019-04-28T03:43:42.616Z,61.33
2019-04-28T03:44:47.746Z,61.36
2019-04-28T03:46:02.696Z,61.34
2019-04-28T03:47:04.803Z,61.28
2019-04-28T03:48:11.439Z,61.26
2019-04-28T03:49:31.957Z,61.26
2019-04-28T03:50:36.978Z,61.25
2019-04-28T03:51:42.262Z,61.20
2019-04-28T03:52:47.279Z,61.19
2019-04-28T03:53:52.230Z,61.17
2019-04-28T03:54:57.278Z,61.19
2019-04-28T03:56:02.304Z,61.21
2019-04-28T03:57:07.460Z,61.22
2019-04-28T03:58:12.736Z,61.18
2019-04-28T03:59:17.968Z,61.16
2019-04-28T04:00:22.943Z,61.17
2019-04-28T04:01:30.324Z,61.20
2019-04-28T04:02:35.020Z,61.20
2019-04-28T04:03:41.682Z,61.21
2019-04-28T04:04:46.820Z,61.24
2019-04-28T04:05:51.899Z,61.27
2019-04-28T04:06:57.061Z,61.27
2019-04-28T04:08:02.108Z,61.27
2019-04-28T04:09:07.409Z,61.25
2019-04-28T04:10:40.352Z,61.29
2019-04-28T04:12:00.386Z,61.27
2019-04-28T04:13:14.925Z,61.29
2019-04-28T04:14:51.061Z,61.30
2019-04-28T04:16:04.316Z,61.31
2019-04-28T04:17:16.260Z,61.28
2019-04-28T04:18:41.023Z,61.29
2019-04-28T04:19:46.078Z,61.23
2019-04-28T04:20:51.500Z,61.15
2019-04-28T04:21:56.433Z,61.16
2019-04-28T04:23:02.084Z,61.18
2019-04-28T04:24:07.221Z,61.21
2019-04-28T04:25:12.830Z,61.20
2019-04-28T04:26:20.513Z,61.24
2019-04-28T04:27:25.104Z,61.22
2019-04-28T04:28:30.487Z,61.19
2019-04-28T04:29:35.587Z,61.21
2019-04-28T04:30:41.130Z,61.23
2019-04-28T04:31:46.150Z,61.23
2019-04-28T04:32:51.341Z,61.22
2019-04-28T04:33:56.388Z,61.22
2019-04-28T04:35:01.432Z,61.27
2019-04-28T04:36:06.596Z,61.28
2019-04-28T04:37:12.594Z,61.27
2019-04-28T04:38:17.702Z,61.28
2019-04-28T04:39:23.123Z,61.30
2019-04-28T04:40:31.333Z,61.32
2019-04-28T04:41:35.155Z,61.36
2019-04-28T04:42:40.593Z,61.35
2019-04-28T04:43:45.539Z,61.34
2019-04-28T04:44:50.506Z,61.28
2019-04-28T04:46:16.995Z,61.23
2019-04-28T04:47:22.061Z,61.19
2019-04-28T04:48:27.355Z,61.16
2019-04-28T04:49:32.501Z,61.17
2019-04-28T04:50:37.659Z,61.11
2019-04-28T04:51:43.932Z,61.02
2019-04-28T04:52:50.152Z,60.91
2019-04-28T04:53:55.646Z,60.84
2019-04-28T04:55:01.405Z,60.77
2019-04-28T04:56:06.602Z,60.69
2019-04-28T04:57:11.673Z,60.62
2019-04-28T04:58:16.914Z,60.53
2019-04-28T04:59:22.400Z,60.46
2019-04-28T05:00:43.988Z,60.38
2019-04-28T05:02:02.006Z,60.29
2019-04-28T05:03:11.098Z,60.21
2019-04-28T05:04:31.475Z,60.17
2019-04-28T05:05:40.836Z,60.15
2019-04-28T05:06:45.877Z,60.10
2019-04-28T05:07:51.042Z,60.11
2019-04-28T05:08:56.148Z,60.10
2019-04-28T05:10:01.310Z,60.10
2019-04-28T05:11:06.332Z,60.16
2019-04-28T05:12:11.566Z,60.19
2019-04-28T05:13:16.808Z,60.26
2019-04-28T05:14:21.807Z,60.32
2019-04-28T05:15:26.760Z,60.34
2019-04-28T05:16:31.855Z,60.30
2019-04-28T05:17:36.823Z,60.24
2019-04-28T05:18:41.898Z,60.22
2019-04-28T05:19:47.230Z,60.17
2019-04-28T05:20:52.322Z,60.16
2019-04-28T05:21:57.599Z,60.15
2019-04-28T05:23:09.661Z,60.10
2019-04-28T05:24:46.317Z,60.09
2019-04-28T05:25:49.907Z,60.09
2019-04-28T05:26:54.954Z,60.11
2019-04-28T05:28:02.908Z,60.09
2019-04-28T05:29:06.887Z,60.00
2019-04-28T05:30:13.963Z,59.87
2019-04-28T05:31:23.016Z,59.88
2019-04-28T05:32:39.378Z,59.86
2019-04-28T05:33:34.041Z,59.80
2019-04-28T05:34:46.393Z,59.79
2019-04-28T05:35:46.150Z,59.81
2019-04-28T05:36:51.290Z,59.83
2019-04-28T05:37:56.287Z,59.88
2019-04-28T05:39:01.285Z,59.88
2019-04-28T05:40:06.580Z,59.94
2019-04-28T05:41:11.617Z,59.96
2019-04-28T05:42:16.777Z,59.89
2019-04-28T05:43:22.360Z,59.83
2019-04-28T05:44:27.425Z,59.71
2019-04-28T05:45:32.604Z,59.62
2019-04-28T05:46:37.698Z,59.58
2019-04-28T05:47:43.249Z,59.51
2019-04-28T05:49:11.729Z,59.47
2019-04-28T05:50:23.133Z,59.45
2019-04-28T05:51:29.940Z,59.37
2019-04-28T05:53:00.662Z,59.31
2019-04-28T05:54:13.120Z,59.33
2019-04-28T05:55:21.054Z,59.40
2019-04-28T05:56:31.217Z,59.44
2019-04-28T05:57:40.742Z,59.50
2019-04-28T05:58:51.554Z,59.49
2019-04-28T06:00:03.551Z,59.42
2019-04-28T06:01:36.808Z,59.39
2019-04-28T06:02:54.118Z,59.32
2019-04-28T06:03:51.281Z,59.19
2019-04-28T06:04:56.369Z,59.13
2019-04-28T06:06:01.490Z,59.10
2019-04-28T06:07:14.162Z,59.17
2019-04-28T06:08:28.298Z,59.14
2019-04-28T06:09:39.884Z,59.14
2019-04-28T06:10:45.095Z,59.11
2019-04-28T06:11:50.135Z,59.03
2019-04-28T06:12:55.138Z,58.93
2019-04-28T06:14:00.654Z,58.87
2019-04-28T06:15:06.104Z,58.83
2019-04-28T06:16:11.052Z,58.77
2019-04-28T06:17:16.080Z,58.75
2019-04-28T06:18:21.087Z,58.72
2019-04-28T06:19:26.075Z,58.68
2019-04-28T06:20:31.012Z,58.58
2019-04-28T06:21:36.051Z,58.53
2019-04-28T06:22:41.069Z,58.49
2019-04-28T06:23:46.143Z,58.40
2019-04-28T06:24:51.273Z,58.36
2019-04-28T06:25:56.592Z,58.29
2019-04-28T06:27:01.629Z,58.20
2019-04-28T06:28:06.747Z,58.21
2019-04-28T06:29:11.759Z,58.13
2019-04-28T06:30:17.091Z,58.01
2019-04-28T06:31:23.228Z,57.96
2019-04-28T06:32:28.826Z,57.94
2019-04-28T06:33:34.074Z,57.83
2019-04-28T06:34:39.157Z,57.73
2019-04-28T06:35:44.554Z,57.73
2019-04-28T06:36:52.021Z,57.71
2019-04-28T06:37:57.348Z,57.68
2019-04-28T06:39:03.819Z,57.70
2019-04-28T06:40:09.078Z,57.69
2019-04-28T06:41:14.218Z,57.75
2019-04-28T06:42:19.564Z,57.81
2019-04-28T06:43:25.145Z,57.88
2019-04-28T06:44:30.280Z,57.83
2019-04-28T06:45:35.210Z,57.80
2019-04-28T06:46:40.426Z,57.80
2019-04-28T06:47:45.498Z,57.80
2019-04-28T06:48:50.587Z,57.79
2019-04-28T06:49:55.611Z,57.71
2019-04-28T06:51:00.809Z,57.67
2019-04-28T06:52:05.838Z,57.69
2019-04-28T06:53:10.792Z,57.61
2019-04-28T06:54:15.781Z,57.51
2019-04-28T06:55:21.394Z,57.54
2019-04-28T06:56:26.477Z,57.56
2019-04-28T06:57:31.584Z,57.61
2019-04-28T06:58:36.782Z,57.63
2019-04-28T06:59:42.272Z,57.60
2019-04-28T07:00:47.373Z,57.54
2019-04-28T07:01:52.465Z,57.40
2019-04-28T07:02:57.815Z,57.33
2019-04-28T07:04:03.170Z,57.18
2019-04-28T07:05:08.953Z,57.05
2019-04-28T07:06:14.057Z,56.98
2019-04-28T07:07:19.207Z,57.00
2019-04-28T07:08:24.288Z,57.01
2019-04-28T07:09:29.430Z,57.00
2019-04-28T07:10:34.791Z,57.07
2019-04-28T07:11:40.255Z,57.12
2019-04-28T07:12:45.351Z,57.23
2019-04-28T07:13:50.713Z,57.27
2019-04-28T07:14:55.846Z,57.33
2019-04-28T07:16:01.151Z,57.41
2019-04-28T07:17:06.335Z,57.51
2019-04-28T07:18:11.387Z,57.56
2019-04-28T07:19:16.480Z,57.67
2019-04-28T07:20:49.825Z,57.77
2019-04-28T07:22:19.716Z,57.83
2019-04-28T07:23:24.810Z,57.70
2019-04-28T07:24:29.765Z,57.82
2019-04-28T07:25:34.762Z,57.85
2019-04-28T07:26:39.811Z,57.87
2019-04-28T07:27:44.943Z,57.87
2019-04-28T07:28:49.995Z,57.82
2019-04-28T07:29:55.483Z,57.83
2019-04-28T07:31:01.049Z,57.84
2019-04-28T07:32:06.415Z,57.88
2019-04-28T07:33:11.469Z,57.85
2019-04-28T07:34:16.908Z,57.81
2019-04-28T07:35:22.137Z,57.77
2019-04-28T07:36:27.595Z,57.71
2019-04-28T07:37:32.809Z,57.71
2019-04-28T07:38:38.227Z,57.70
2019-04-28T07:39:43.536Z,57.70
2019-04-28T07:40:48.607Z,57.69
2019-04-28T07:41:53.675Z,57.62
2019-04-28T07:42:58.657Z,57.55
2019-04-28T07:44:03.771Z,57.43
2019-04-28T07:45:09.236Z,57.31
2019-04-28T07:46:14.651Z,57.18
2019-04-28T07:47:20.273Z,57.14
2019-04-28T07:48:25.647Z,57.18
2019-04-28T07:49:30.568Z,57.22
2019-04-28T07:50:35.625Z,57.11
2019-04-28T07:51:54.249Z,57.01
2019-04-28T07:53:05.947Z,56.86
2019-04-28T07:54:11.525Z,56.63
2019-04-28T07:55:16.752Z,56.44
2019-04-28T07:56:22.114Z,56.38
2019-04-28T07:57:31.498Z,56.22
2019-04-28T07:58:36.721Z,56.16
2019-04-28T07:59:41.848Z,56.06
2019-04-28T08:00:48.810Z,55.91
2019-04-28T08:01:54.300Z,55.73
2019-04-28T08:02:59.334Z,55.56
2019-04-28T08:04:04.556Z,55.42
2019-04-28T08:05:10.099Z,55.27
2019-04-28T08:06:15.370Z,55.16
2019-04-28T08:07:20.507Z,55.09
2019-04-28T08:08:25.546Z,55.00
2019-04-28T08:09:30.657Z,54.90
2019-04-28T08:10:35.865Z,54.80
2019-04-28T08:11:41.042Z,54.70
2019-04-28T08:12:46.015Z,54.54
2019-04-28T08:13:51.741Z,54.46
2019-04-28T08:14:56.920Z,54.33
2019-04-28T08:16:02.097Z,54.19
2019-04-28T08:17:07.540Z,54.03
2019-04-28T08:18:12.972Z,53.92
2019-04-28T08:19:18.064Z,53.82
2019-04-28T08:20:23.129Z,53.78
2019-04-28T08:21:28.169Z,53.68
2019-04-28T08:22:33.197Z,53.65
2019-04-28T08:23:47.056Z,53.69
2019-04-28T08:24:45.829Z,53.74
2019-04-28T08:25:50.859Z,53.76
2019-04-28T08:26:55.906Z,53.76
2019-04-28T08:28:01.365Z,53.78
2019-04-28T08:29:06.448Z,53.84
2019-04-28T08:30:11.725Z,53.87
2019-04-28T08:31:18.450Z,53.93
2019-04-28T08:32:38.593Z,54.00
2019-04-28T08:34:02.199Z,53.91
2019-04-28T08:35:00.924Z,53.78
2019-04-28T08:36:06.104Z,53.80
2019-04-28T08:37:11.340Z,53.69
2019-04-28T08:38:16.725Z,53.70
2019-04-28T08:39:25.024Z,53.75
2019-04-28T08:40:28.584Z,53.80
2019-04-28T08:41:33.927Z,53.83
2019-04-28T08:42:39.204Z,53.76
2019-04-28T08:43:44.889Z,53.68
2019-04-28T08:44:49.918Z,53.57
2019-04-28T08:45:55.303Z,53.43
2019-04-28T08:47:00.442Z,53.25
2019-04-28T08:48:05.728Z,53.16
2019-04-28T08:49:10.914Z,53.13
2019-04-28T08:50:16.177Z,53.14
2019-04-28T08:51:21.593Z,53.14
2019-04-28T08:52:26.658Z,53.14
2019-04-28T08:53:31.820Z,53.12
2019-04-28T08:54:36.931Z,53.10
2019-04-28T08:55:42.545Z,53.05
2019-04-28T08:56:47.689Z,52.89
2019-04-28T08:57:52.787Z,52.80
2019-04-28T08:58:57.869Z,52.70
2019-04-28T09:00:03.135Z,52.64
2019-04-28T09:01:08.360Z,52.56
2019-04-28T09:02:13.852Z,52.54
2019-04-28T09:03:18.923Z,52.63
2019-04-28T09:04:24.290Z,52.69
2019-04-28T09:05:29.488Z,52.60
2019-04-28T09:06:34.570Z,52.52
2019-04-28T09:07:39.776Z,52.43
2019-04-28T09:08:44.949Z,52.26
2019-04-28T09:09:50.207Z,51.94
2019-04-28T09:10:55.391Z,51.69
2019-04-28T09:12:00.565Z,51.47
2019-04-28T09:13:05.707Z,51.16
2019-04-28T09:14:11.138Z,51.01
2019-04-28T09:15:16.437Z,50.81
2019-04-28T09:16:21.470Z,50.57
2019-04-28T09:17:26.648Z,50.49
2019-04-28T09:18:31.975Z,50.47
2019-04-28T09:19:37.032Z,50.43
2019-04-28T09:20:42.135Z,50.37
2019-04-28T09:21:47.928Z,50.26
2019-04-28T09:22:53.067Z,50.22
2019-04-28T09:23:58.146Z,50.09
2019-04-28T09:25:03.729Z,50.10
2019-04-28T09:26:09.100Z,50.11
2019-04-28T09:27:14.247Z,49.97
2019-04-28T09:28:19.368Z,50.14
2019-04-28T09:29:24.529Z,50.31
2019-04-28T09:30:30.018Z,50.35
2019-04-28T09:31:35.061Z,50.43
2019-04-28T09:32:40.267Z,50.50
2019-04-28T09:33:45.594Z,50.47
2019-04-28T09:34:51.069Z,50.52
2019-04-28T09:35:56.191Z,50.58
2019-04-28T09:37:01.346Z,50.65
2019-04-28T09:38:06.342Z,50.64
2019-04-28T09:39:13.068Z,50.64
2019-04-28T09:40:18.551Z,50.58
2019-04-28T09:41:23.642Z,50.58
2019-04-28T09:42:56.835Z,50.40
2019-04-28T09:44:11.620Z,50.34
2019-04-28T09:45:22.542Z,50.28
2019-04-28T09:46:30.594Z,50.05
2019-04-28T09:47:35.825Z,49.81
2019-04-28T09:48:41.090Z,49.58
2019-04-28T09:49:46.400Z,49.47
2019-04-28T09:50:51.873Z,49.37
2019-04-28T09:51:56.891Z,49.37
2019-04-28T09:53:01.897Z,49.35
2019-04-28T09:54:07.353Z,49.38
2019-04-28T09:55:12.574Z,49.36
2019-04-28T09:56:17.751Z,49.40
2019-04-28T09:57:22.932Z,49.41
2019-04-28T09:58:28.262Z,49.20
2019-04-28T09:59:33.444Z,49.11
2019-04-28T10:00:40.010Z,48.98
2019-04-28T10:01:45.276Z,48.91
2019-04-28T10:02:50.446Z,48.92
2019-04-28T10:03:55.609Z,48.91
2019-04-28T10:05:00.655Z,48.80
2019-04-28T10:06:06.394Z,48.81
2019-04-28T10:07:11.459Z,48.84
2019-04-28T10:08:16.787Z,48.97
2019-04-28T10:09:21.800Z,49.10
2019-04-28T10:10:27.191Z,49.22
2019-04-28T10:11:32.187Z,49.37
2019-04-28T10:12:37.212Z,49.43
2019-04-28T10:13:42.210Z,49.41
2019-04-28T10:14:47.397Z,49.29
2019-04-28T10:15:52.774Z,49.16
2019-04-28T10:16:57.967Z,49.00
2019-04-28T10:18:03.290Z,48.96
2019-04-28T10:19:08.296Z,49.00
2019-04-28T10:20:13.631Z,48.99
2019-04-28T10:21:19.011Z,48.88
2019-04-28T10:22:24.547Z,48.89
2019-04-28T10:23:29.725Z,48.74
2019-04-28T10:24:34.809Z,48.53
2019-04-28T10:25:39.917Z,48.49
2019-04-28T10:26:45.109Z,48.34
2019-04-28T10:27:50.230Z,48.18
2019-04-28T10:28:55.381Z,48.09
2019-04-28T10:30:00.787Z,47.93
2019-04-28T10:31:08.338Z,47.90
2019-04-28T10:32:13.940Z,48.04
2019-04-28T10:33:19.574Z,48.13
2019-04-28T10:34:24.720Z,48.25
2019-04-28T10:35:30.041Z,48.39
2019-04-28T10:36:36.729Z,48.37
2019-04-28T10:37:41.860Z,48.32
2019-04-28T10:38:48.533Z,48.29
2019-04-28T10:40:11.764Z,48.26
2019-04-28T10:41:23.524Z,48.22
2019-04-28T10:42:28.543Z,48.04
2019-04-28T10:43:33.927Z,47.78
2019-04-28T10:44:41.908Z,47.63
2019-04-28T10:45:48.531Z,47.43
2019-04-28T10:46:53.642Z,47.21
2019-04-28T10:47:59.325Z,46.95
2019-04-28T10:49:04.429Z,46.73
2019-04-28T10:50:09.841Z,46.53
2019-04-28T10:51:15.260Z,46.43
2019-04-28T10:52:20.496Z,46.40
2019-04-28T10:53:28.126Z,46.44
2019-04-28T10:54:33.544Z,46.43
2019-04-28T10:55:38.708Z,46.52
2019-04-28T10:56:44.165Z,46.62
2019-04-28T10:57:49.256Z,46.84
2019-04-28T10:58:57.166Z,47.02
2019-04-28T11:00:02.276Z,47.15
2019-04-28T11:01:07.564Z,47.31
2019-04-28T11:02:12.896Z,47.44
2019-04-28T11:03:17.973Z,47.53
2019-04-28T11:04:41.252Z,47.49
2019-04-28T11:05:46.844Z,47.61
2019-04-28T11:06:51.789Z,47.72
2019-04-28T11:07:57.542Z,47.85
2019-04-28T11:09:30.461Z,47.96
2019-04-28T11:10:28.938Z,47.88
2019-04-28T11:11:37.174Z,48.00
2019-04-28T11:12:42.317Z,48.08
2019-04-28T11:13:47.445Z,48.23
2019-04-28T11:14:52.541Z,48.28
2019-04-28T11:15:58.023Z,48.37
2019-04-28T11:17:03.159Z,48.49
2019-04-28T11:18:09.978Z,48.65
2019-04-28T11:19:15.327Z,48.82
2019-04-28T11:20:20.672Z,48.85
2019-04-28T11:21:25.980Z,48.90
2019-04-28T11:22:31.141Z,49.01
2019-04-28T11:23:36.377Z,49.08
2019-04-28T11:24:41.915Z,49.16
2019-04-28T11:25:46.989Z,49.28
2019-04-28T11:26:52.044Z,49.34
2019-04-28T11:27:57.297Z,49.48
2019-04-28T11:29:02.406Z,49.60
2019-04-28T11:30:07.927Z,49.74
2019-04-28T11:31:12.947Z,49.88
2019-04-28T11:32:18.074Z,49.93
2019-04-28T11:33:40.569Z,49.97
2019-04-28T11:34:54.573Z,49.96
2019-04-28T11:35:59.898Z,49.88
2019-04-28T11:37:05.143Z,49.70
2019-04-28T11:38:10.311Z,49.50
2019-04-28T11:39:19.928Z,49.24
2019-04-28T11:40:25.432Z,49.04
2019-04-28T11:41:31.016Z,48.84
2019-04-28T11:42:35.969Z,48.71
2019-04-28T11:43:41.101Z,48.61
2019-04-28T11:44:46.305Z,48.50
2019-04-28T11:45:51.750Z,48.32
2019-04-28T11:46:56.867Z,47.97
2019-04-28T11:48:01.944Z,47.79
2019-04-28T11:49:07.023Z,47.63
2019-04-28T11:50:12.198Z,47.54
2019-04-28T11:51:17.474Z,47.46
2019-04-28T11:52:22.717Z,47.42
2019-04-28T11:53:28.101Z,47.32
2019-04-28T11:54:33.743Z,47.25
2019-04-28T11:55:38.794Z,47.17
2019-04-28T11:56:44.048Z,47.07
2019-04-28T11:57:49.509Z,46.90
2019-04-28T11:58:54.536Z,46.78
2019-04-28T11:59:59.862Z,46.69
2019-04-28T12:01:05.448Z,46.55
2019-04-28T12:02:10.593Z,46.50
2019-04-28T12:03:15.715Z,46.34
2019-04-28T12:04:20.936Z,46.15
2019-04-28T12:05:34.559Z,45.97
2019-04-28T12:06:37.387Z,45.94
2019-04-28T12:07:42.484Z,45.91
2019-04-28T12:08:49.163Z,45.85
2019-04-28T12:10:06.262Z,45.84
2019-04-28T12:11:24.362Z,45.81
2019-04-28T12:12:47.643Z,45.82
2019-04-28T12:14:15.066Z,45.78
2019-04-28T12:15:38.011Z,45.92
2019-04-28T12:17:00.755Z,46.24
2019-04-28T12:18:23.039Z,46.57
2019-04-28T12:19:33.965Z,46.78
2019-04-28T12:20:39.306Z,46.94
2019-04-28T12:21:44.319Z,47.14
2019-04-28T12:22:49.334Z,47.26
2019-04-28T12:23:54.518Z,47.36
2019-04-28T12:24:59.692Z,47.46
2019-04-28T12:26:04.898Z,47.58
2019-04-28T12:27:09.947Z,47.64
2019-04-28T12:28:15.183Z,47.71
2019-04-28T12:29:20.423Z,47.69
2019-04-28T12:30:25.587Z,47.67
2019-04-28T12:31:30.834Z,47.53
2019-04-28T12:32:35.848Z,47.26
2019-04-28T12:33:40.956Z,47.04
2019-04-28T12:34:46.294Z,46.76
2019-04-28T12:35:51.351Z,46.62
2019-04-28T12:36:56.594Z,46.52
2019-04-28T12:38:01.723Z,46.43
2019-04-28T12:39:08.223Z,46.28
2019-04-28T12:40:13.339Z,45.96
2019-04-28T12:41:18.460Z,45.83
2019-04-28T12:42:23.620Z,45.78
2019-04-28T12:43:29.033Z,45.74
2019-04-28T12:44:34.333Z,45.80
2019-04-28T12:45:39.206Z,45.81
2019-04-28T12:46:44.321Z,45.73
2019-04-28T12:47:49.515Z,45.79
2019-04-28T12:48:57.515Z,45.85
2019-04-28T12:50:14.668Z,45.96
2019-04-28T12:51:19.716Z,46.19
2019-04-28T12:52:24.753Z,46.44
2019-04-28T12:53:29.845Z,46.68
2019-04-28T12:54:36.507Z,47.01
2019-04-28T12:55:42.148Z,47.29
2019-04-28T12:56:47.445Z,47.45
2019-04-28T12:57:53.038Z,47.57
2019-04-28T12:59:03.418Z,47.65
2019-04-28T13:00:39.874Z,47.79
2019-04-28T13:01:51.986Z,48.06
2019-04-28T13:03:22.118Z,48.31
2019-04-28T13:04:31.860Z,48.58
2019-04-28T13:05:37.944Z,48.92
2019-04-28T13:06:44.586Z,49.06
2019-04-28T13:07:49.924Z,49.15
2019-04-28T13:08:54.906Z,49.12
2019-04-28T13:10:00.098Z,49.04
2019-04-28T13:11:05.218Z,48.85
2019-04-28T13:12:10.612Z,48.62
2019-04-28T13:13:15.836Z,48.44
2019-04-28T13:14:20.940Z,48.29
2019-04-28T13:15:26.114Z,48.17
2019-04-28T13:16:31.203Z,48.02
2019-04-28T13:17:36.338Z,47.97
2019-04-28T13:18:41.695Z,47.92
2019-04-28T13:19:46.991Z,47.85
2019-04-28T13:20:52.243Z,47.83
2019-04-28T13:22:00.464Z,47.79
2019-04-28T13:23:05.551Z,47.85
2019-04-28T13:24:10.583Z,47.71
2019-04-28T13:25:15.967Z,47.52
2019-04-28T13:26:21.217Z,47.45
2019-04-28T13:27:26.454Z,47.40
2019-04-28T13:28:33.372Z,47.24
2019-04-28T13:29:38.315Z,47.07
2019-04-28T13:30:45.352Z,46.73
2019-04-28T13:31:50.482Z,46.47
2019-04-28T13:32:55.586Z,46.16
2019-04-28T13:34:01.517Z,45.82
2019-04-28T13:35:07.132Z,45.62
2019-04-28T13:36:15.082Z,45.62
2019-04-28T13:37:19.911Z,45.26
2019-04-28T13:38:25.427Z,44.97
2019-04-28T13:39:35.794Z,44.70
2019-04-28T13:40:41.578Z,44.50
2019-04-28T13:41:46.851Z,44.27
2019-04-28T13:42:52.157Z,44.10
2019-04-28T13:44:04.594Z,43.79
2019-04-28T13:45:16.199Z,43.61
2019-04-28T13:46:24.645Z,43.33
2019-04-28T13:47:29.901Z,42.99
2019-04-28T13:48:35.503Z,42.79
2019-04-28T13:49:51.963Z,42.60
2019-04-28T13:50:57.448Z,42.35
2019-04-28T13:52:02.846Z,42.21
2019-04-28T13:53:08.433Z,42.06
2019-04-28T13:54:15.361Z,42.04
2019-04-28T13:55:57.759Z,42.06
2019-04-28T13:57:02.971Z,42.07
2019-04-28T13:58:08.107Z,42.18
2019-04-28T13:59:17.605Z,42.20
2019-04-28T14:00:29.487Z,42.16
2019-04-28T14:01:56.329Z,42.11
2019-04-28T14:03:13.616Z,42.09
2019-04-28T14:04:36.399Z,41.99
2019-04-28T14:05:51.886Z,41.86
2019-04-28T14:07:01.786Z,41.87
2019-04-28T14:08:06.941Z,42.07
2019-04-28T14:09:16.736Z,42.40
2019-04-28T14:10:21.892Z,42.57
2019-04-28T14:11:27.149Z,42.67
2019-04-28T14:12:32.499Z,42.79
2019-04-28T14:13:37.566Z,42.90
2019-04-28T14:14:42.654Z,43.03
2019-04-28T14:15:48.511Z,43.14
2019-04-28T14:16:53.696Z,43.31
2019-04-28T14:17:59.100Z,43.53
2019-04-28T14:19:04.403Z,43.61
2019-04-28T14:20:12.119Z,43.66
2019-04-28T14:21:17.321Z,43.75
2019-04-28T14:22:22.473Z,43.84
2019-04-28T14:23:27.927Z,43.84
2019-04-28T14:24:33.188Z,43.76
2019-04-28T14:25:38.241Z,43.89